sensor_id;sensor_type;location;lat;lon;timestamp;P1;durP1;ratioP1;P2;durP2;ratioP2
18905;SDS011;9585;51.018;4.282;2023-05-16T00:02:02;7.05;;;1.80;;
18905;SDS011;9585;51.018;4.282;2023-05-16T00:04:30;13.70;;;1.95;;
18905;SDS011;9585;51.018;4.282;2023-05-16T00:06:58;10.50;;;2.30;;
18905;SDS011;9585;51.018;4.282;2023-05-16T00:09:25;10.77;;;2.03;;
18905;SDS011;9585;51.018;4.282;2023-05-16T00:11:54;11.00;;;2.10;;
18905;SDS011;9585;51.018;4.282;2023-05-16T00:14:22;10.27;;;2.25;;
18905;SDS011;9585;51.018;4.282;2023-05-16T00:16:50;5.70;;;1.60;;
18905;SDS011;9585;51.018;4.282;2023-05-16T00:19:18;13.20;;;2.15;;
18905;SDS011;9585;51.018;4.282;2023-05-16T00:21:46;9.60;;;2.13;;
18905;SDS011;9585;51.018;4.282;2023-05-16T00:24:13;7.70;;;1.75;;
18905;SDS011;9585;51.018;4.282;2023-05-16T00:26:41;9.73;;;2.10;;
18905;SDS011;9585;51.018;4.282;2023-05-16T00:29:10;12.38;;;2.15;;
18905;SDS011;9585;51.018;4.282;2023-05-16T00:31:38;8.05;;;1.88;;
18905;SDS011;9585;51.018;4.282;2023-05-16T00:34:05;8.13;;;1.63;;
18905;SDS011;9585;51.018;4.282;2023-05-16T00:36:33;7.30;;;1.58;;
18905;SDS011;9585;51.018;4.282;2023-05-16T00:39:01;11.77;;;2.00;;
18905;SDS011;9585;51.018;4.282;2023-05-16T00:41:29;9.70;;;2.08;;
18905;SDS011;9585;51.018;4.282;2023-05-16T00:43:56;12.02;;;1.88;;
18905;SDS011;9585;51.018;4.282;2023-05-16T00:46:25;12.05;;;2.33;;
18905;SDS011;9585;51.018;4.282;2023-05-16T00:48:53;11.52;;;1.88;;
18905;SDS011;9585;51.018;4.282;2023-05-16T00:51:20;10.48;;;1.90;;
18905;SDS011;9585;51.018;4.282;2023-05-16T00:53:48;7.72;;;2.00;;
18905;SDS011;9585;51.018;4.282;2023-05-16T00:56:16;12.48;;;2.25;;
18905;SDS011;9585;51.018;4.282;2023-05-16T00:58:43;9.75;;;1.73;;
18905;SDS011;9585;51.018;4.282;2023-05-16T01:01:11;8.65;;;2.10;;
18905;SDS011;9585;51.018;4.282;2023-05-16T01:03:40;8.15;;;1.75;;
18905;SDS011;9585;51.018;4.282;2023-05-16T01:06:09;9.45;;;1.85;;
18905;SDS011;9585;51.018;4.282;2023-05-16T01:08:37;12.50;;;1.90;;
18905;SDS011;9585;51.018;4.282;2023-05-16T01:11:07;8.10;;;1.95;;
18905;SDS011;9585;51.018;4.282;2023-05-16T01:13:40;7.65;;;1.90;;
18905;SDS011;9585;51.018;4.282;2023-05-16T01:16:17;6.63;;;1.80;;
18905;SDS011;9585;51.018;4.282;2023-05-16T01:18:55;10.00;;;1.98;;
18905;SDS011;9585;51.018;4.282;2023-05-16T01:21:33;8.57;;;2.13;;
18905;SDS011;9585;51.018;4.282;2023-05-16T01:24:19;7.75;;;1.90;;
18905;SDS011;9585;51.018;4.282;2023-05-16T01:26:54;7.55;;;1.70;;
18905;SDS011;9585;51.018;4.282;2023-05-16T01:29:23;11.35;;;2.25;;
18905;SDS011;9585;51.018;4.282;2023-05-16T01:31:52;15.45;;;2.10;;
18905;SDS011;9585;51.018;4.282;2023-05-16T01:34:20;8.25;;;1.90;;
18905;SDS011;9585;51.018;4.282;2023-05-16T01:36:47;7.03;;;1.75;;
18905;SDS011;9585;51.018;4.282;2023-05-16T01:39:25;10.80;;;2.50;;
18905;SDS011;9585;51.018;4.282;2023-05-16T01:42:02;12.85;;;1.80;;
18905;SDS011;9585;51.018;4.282;2023-05-16T01:44:32;13.20;;;2.33;;
18905;SDS011;9585;51.018;4.282;2023-05-16T01:47:02;9.73;;;2.00;;
18905;SDS011;9585;51.018;4.282;2023-05-16T01:49:34;7.32;;;1.88;;
18905;SDS011;9585;51.018;4.282;2023-05-16T01:52:07;10.60;;;1.92;;
18905;SDS011;9585;51.018;4.282;2023-05-16T01:54:43;7.85;;;1.77;;
18905;SDS011;9585;51.018;4.282;2023-05-16T01:57:18;5.50;;;1.85;;
18905;SDS011;9585;51.018;4.282;2023-05-16T01:59:56;5.75;;;1.48;;
18905;SDS011;9585;51.018;4.282;2023-05-16T02:02:27;7.97;;;1.60;;
18905;SDS011;9585;51.018;4.282;2023-05-16T02:04:54;4.50;;;1.20;;
18905;SDS011;9585;51.018;4.282;2023-05-16T02:07:22;4.35;;;1.20;;
18905;SDS011;9585;51.018;4.282;2023-05-16T02:09:49;4.32;;;1.35;;
18905;SDS011;9585;51.018;4.282;2023-05-16T02:12:18;5.95;;;1.50;;
18905;SDS011;9585;51.018;4.282;2023-05-16T02:14:46;3.78;;;1.63;;
18905;SDS011;9585;51.018;4.282;2023-05-16T02:17:13;5.88;;;1.70;;
18905;SDS011;9585;51.018;4.282;2023-05-16T02:19:41;6.55;;;1.50;;
18905;SDS011;9585;51.018;4.282;2023-05-16T02:22:09;4.30;;;1.27;;
18905;SDS011;9585;51.018;4.282;2023-05-16T02:24:37;5.25;;;1.50;;
18905;SDS011;9585;51.018;4.282;2023-05-16T02:27:04;7.80;;;1.50;;
18905;SDS011;9585;51.018;4.282;2023-05-16T02:29:33;9.63;;;2.03;;
18905;SDS011;9585;51.018;4.282;2023-05-16T02:32:00;7.18;;;1.80;;
18905;SDS011;9585;51.018;4.282;2023-05-16T02:34:28;7.63;;;1.80;;
18905;SDS011;9585;51.018;4.282;2023-05-16T02:36:56;6.30;;;1.90;;
18905;SDS011;9585;51.018;4.282;2023-05-16T02:39:23;7.32;;;2.13;;
18905;SDS011;9585;51.018;4.282;2023-05-16T02:41:51;9.55;;;2.25;;
18905;SDS011;9585;51.018;4.282;2023-05-16T02:44:19;6.03;;;1.90;;
18905;SDS011;9585;51.018;4.282;2023-05-16T02:46:48;5.78;;;1.80;;
18905;SDS011;9585;51.018;4.282;2023-05-16T02:49:15;5.13;;;2.10;;
18905;SDS011;9585;51.018;4.282;2023-05-16T02:51:42;7.70;;;2.10;;
18905;SDS011;9585;51.018;4.282;2023-05-16T02:54:12;5.88;;;2.03;;
18905;SDS011;9585;51.018;4.282;2023-05-16T02:56:40;11.00;;;2.63;;
18905;SDS011;9585;51.018;4.282;2023-05-16T02:59:07;7.10;;;1.95;;
18905;SDS011;9585;51.018;4.282;2023-05-16T03:01:34;6.10;;;1.80;;
18905;SDS011;9585;51.018;4.282;2023-05-16T03:04:03;9.32;;;2.60;;
18905;SDS011;9585;51.018;4.282;2023-05-16T03:06:31;9.70;;;2.67;;
18905;SDS011;9585;51.018;4.282;2023-05-16T03:08:58;8.52;;;2.65;;
18905;SDS011;9585;51.018;4.282;2023-05-16T03:11:25;8.90;;;2.53;;
18905;SDS011;9585;51.018;4.282;2023-05-16T03:13:53;10.77;;;2.00;;
18905;SDS011;9585;51.018;4.282;2023-05-16T03:16:20;7.63;;;2.30;;
18905;SDS011;9585;51.018;4.282;2023-05-16T03:18:48;8.88;;;2.22;;
18905;SDS011;9585;51.018;4.282;2023-05-16T03:21:16;9.20;;;2.00;;
18905;SDS011;9585;51.018;4.282;2023-05-16T03:23:44;11.07;;;2.40;;
18905;SDS011;9585;51.018;4.282;2023-05-16T03:26:11;11.10;;;2.10;;
18905;SDS011;9585;51.018;4.282;2023-05-16T03:28:38;7.65;;;1.80;;
18905;SDS011;9585;51.018;4.282;2023-05-16T03:31:05;8.23;;;2.25;;
18905;SDS011;9585;51.018;4.282;2023-05-16T03:33:33;8.93;;;1.98;;
18905;SDS011;9585;51.018;4.282;2023-05-16T03:36:00;8.35;;;2.13;;
18905;SDS011;9585;51.018;4.282;2023-05-16T03:38:29;8.40;;;2.13;;
18905;SDS011;9585;51.018;4.282;2023-05-16T03:40:57;4.72;;;1.83;;
18905;SDS011;9585;51.018;4.282;2023-05-16T03:43:25;10.23;;;2.40;;
18905;SDS011;9585;51.018;4.282;2023-05-16T03:45:52;7.85;;;2.10;;
18905;SDS011;9585;51.018;4.282;2023-05-16T03:48:19;9.30;;;2.45;;
18905;SDS011;9585;51.018;4.282;2023-05-16T03:50:47;12.02;;;2.45;;
18905;SDS011;9585;51.018;4.282;2023-05-16T03:53:15;11.60;;;2.17;;
18905;SDS011;9585;51.018;4.282;2023-05-16T03:55:44;8.10;;;2.20;;
18905;SDS011;9585;51.018;4.282;2023-05-16T03:58:11;11.45;;;2.72;;
18905;SDS011;9585;51.018;4.282;2023-05-16T04:00:38;9.52;;;2.35;;
18905;SDS011;9585;51.018;4.282;2023-05-16T04:03:06;10.00;;;2.05;;
18905;SDS011;9585;51.018;4.282;2023-05-16T04:05:33;12.30;;;2.85;;
18905;SDS011;9585;51.018;4.282;2023-05-16T04:08:00;13.48;;;2.78;;
18905;SDS011;9585;51.018;4.282;2023-05-16T04:10:28;6.07;;;2.15;;
18905;SDS011;9585;51.018;4.282;2023-05-16T04:12:57;7.72;;;2.25;;
18905;SDS011;9585;51.018;4.282;2023-05-16T04:15:24;10.40;;;3.03;;
18905;SDS011;9585;51.018;4.282;2023-05-16T04:17:51;11.15;;;2.20;;
18905;SDS011;9585;51.018;4.282;2023-05-16T04:20:19;8.68;;;2.55;;
18905;SDS011;9585;51.018;4.282;2023-05-16T04:22:46;7.47;;;2.17;;
18905;SDS011;9585;51.018;4.282;2023-05-16T04:25:13;8.07;;;2.28;;
18905;SDS011;9585;51.018;4.282;2023-05-16T04:27:41;8.60;;;2.20;;
18905;SDS011;9585;51.018;4.282;2023-05-16T04:30:10;7.15;;;1.95;;
18905;SDS011;9585;51.018;4.282;2023-05-16T04:32:38;10.10;;;2.35;;
18905;SDS011;9585;51.018;4.282;2023-05-16T04:35:06;5.13;;;1.83;;
18905;SDS011;9585;51.018;4.282;2023-05-16T04:37:34;9.07;;;2.10;;
18905;SDS011;9585;51.018;4.282;2023-05-16T04:40:02;7.88;;;2.33;;
18905;SDS011;9585;51.018;4.282;2023-05-16T04:42:31;11.90;;;2.10;;
18905;SDS011;9585;51.018;4.282;2023-05-16T04:44:59;4.82;;;1.90;;
18905;SDS011;9585;51.018;4.282;2023-05-16T04:47:29;8.65;;;1.90;;
18905;SDS011;9585;51.018;4.282;2023-05-16T04:49:56;9.02;;;2.22;;
18905;SDS011;9585;51.018;4.282;2023-05-16T04:52:23;6.95;;;1.65;;
18905;SDS011;9585;51.018;4.282;2023-05-16T04:54:51;7.85;;;2.17;;
18905;SDS011;9585;51.018;4.282;2023-05-16T04:57:18;9.07;;;2.38;;
18905;SDS011;9585;51.018;4.282;2023-05-16T04:59:45;6.95;;;1.90;;
18905;SDS011;9585;51.018;4.282;2023-05-16T05:02:13;10.00;;;2.00;;
18905;SDS011;9585;51.018;4.282;2023-05-16T05:04:41;5.50;;;1.95;;
18905;SDS011;9585;51.018;4.282;2023-05-16T05:07:09;9.52;;;2.10;;
18905;SDS011;9585;51.018;4.282;2023-05-16T05:09:36;5.72;;;1.98;;
18905;SDS011;9585;51.018;4.282;2023-05-16T05:12:04;8.23;;;1.90;;
18905;SDS011;9585;51.018;4.282;2023-05-16T05:14:32;8.15;;;1.73;;
18905;SDS011;9585;51.018;4.282;2023-05-16T05:16:59;9.98;;;2.03;;
18905;SDS011;9585;51.018;4.282;2023-05-16T05:19:27;8.60;;;1.80;;
18905;SDS011;9585;51.018;4.282;2023-05-16T05:21:55;7.00;;;1.65;;
18905;SDS011;9585;51.018;4.282;2023-05-16T05:24:23;4.70;;;1.48;;
18905;SDS011;9585;51.018;4.282;2023-05-16T05:26:51;5.43;;;1.58;;
18905;SDS011;9585;51.018;4.282;2023-05-16T05:29:18;6.43;;;1.95;;
18905;SDS011;9585;51.018;4.282;2023-05-16T05:31:45;5.95;;;1.60;;
18905;SDS011;9585;51.018;4.282;2023-05-16T05:34:13;5.25;;;1.75;;
18905;SDS011;9585;51.018;4.282;2023-05-16T05:36:40;5.85;;;1.60;;
18905;SDS011;9585;51.018;4.282;2023-05-16T05:39:09;6.53;;;1.60;;
18905;SDS011;9585;51.018;4.282;2023-05-16T05:41:38;7.00;;;1.92;;
18905;SDS011;9585;51.018;4.282;2023-05-16T05:44:05;7.50;;;1.67;;
18905;SDS011;9585;51.018;4.282;2023-05-16T05:46:33;8.52;;;1.80;;
18905;SDS011;9585;51.018;4.282;2023-05-16T05:49:01;8.15;;;1.52;;
18905;SDS011;9585;51.018;4.282;2023-05-16T05:51:28;5.25;;;1.60;;
18905;SDS011;9585;51.018;4.282;2023-05-16T05:53:56;5.75;;;1.15;;
18905;SDS011;9585;51.018;4.282;2023-05-16T05:56:27;5.93;;;1.30;;
18905;SDS011;9585;51.018;4.282;2023-05-16T05:58:55;5.20;;;1.40;;
18905;SDS011;9585;51.018;4.282;2023-05-16T06:01:23;4.82;;;1.40;;
18905;SDS011;9585;51.018;4.282;2023-05-16T06:03:51;7.47;;;1.42;;
18905;SDS011;9585;51.018;4.282;2023-05-16T06:06:21;5.45;;;1.20;;
18905;SDS011;9585;51.018;4.282;2023-05-16T06:08:48;4.65;;;1.25;;
18905;SDS011;9585;51.018;4.282;2023-05-16T06:11:17;7.07;;;1.30;;
18905;SDS011;9585;51.018;4.282;2023-05-16T06:13:53;7.63;;;1.60;;
18905;SDS011;9585;51.018;4.282;2023-05-16T06:16:25;5.45;;;1.30;;
18905;SDS011;9585;51.018;4.282;2023-05-16T06:18:52;5.55;;;1.40;;
18905;SDS011;9585;51.018;4.282;2023-05-16T06:21:21;4.43;;;1.33;;
18905;SDS011;9585;51.018;4.282;2023-05-16T06:23:48;4.47;;;0.93;;
18905;SDS011;9585;51.018;4.282;2023-05-16T06:26:16;4.93;;;1.15;;
18905;SDS011;9585;51.018;4.282;2023-05-16T06:28:50;5.70;;;1.58;;
18905;SDS011;9585;51.018;4.282;2023-05-16T06:31:21;4.20;;;1.00;;
18905;SDS011;9585;51.018;4.282;2023-05-16T06:33:54;9.43;;;1.80;;
18905;SDS011;9585;51.018;4.282;2023-05-16T06:36:22;5.13;;;1.35;;
18905;SDS011;9585;51.018;4.282;2023-05-16T06:38:51;5.68;;;1.60;;
18905;SDS011;9585;51.018;4.282;2023-05-16T06:41:19;4.72;;;1.30;;
18905;SDS011;9585;51.018;4.282;2023-05-16T06:43:47;5.78;;;1.52;;
18905;SDS011;9585;51.018;4.282;2023-05-16T06:46:14;3.63;;;1.40;;
18905;SDS011;9585;51.018;4.282;2023-05-16T06:48:45;4.07;;;1.38;;
18905;SDS011;9585;51.018;4.282;2023-05-16T06:51:13;5.32;;;1.05;;
18905;SDS011;9585;51.018;4.282;2023-05-16T06:53:40;5.78;;;1.42;;
18905;SDS011;9585;51.018;4.282;2023-05-16T06:56:08;6.90;;;1.33;;
18905;SDS011;9585;51.018;4.282;2023-05-16T06:58:35;4.22;;;1.10;;
18905;SDS011;9585;51.018;4.282;2023-05-16T07:01:02;7.28;;;1.67;;
18905;SDS011;9585;51.018;4.282;2023-05-16T07:03:30;7.13;;;2.30;;
18905;SDS011;9585;51.018;4.282;2023-05-16T07:05:59;6.93;;;1.60;;
18905;SDS011;9585;51.018;4.282;2023-05-16T07:08:29;6.00;;;1.30;;
18905;SDS011;9585;51.018;4.282;2023-05-16T07:10:56;7.60;;;1.08;;
18905;SDS011;9585;51.018;4.282;2023-05-16T07:13:23;4.63;;;1.10;;
18905;SDS011;9585;51.018;4.282;2023-05-16T07:15:51;3.03;;;1.08;;
18905;SDS011;9585;51.018;4.282;2023-05-16T07:18:21;4.95;;;1.13;;
18905;SDS011;9585;51.018;4.282;2023-05-16T07:20:49;4.00;;;1.10;;
18905;SDS011;9585;51.018;4.282;2023-05-16T07:23:25;4.97;;;1.00;;
18905;SDS011;9585;51.018;4.282;2023-05-16T07:25:53;4.35;;;0.93;;
18905;SDS011;9585;51.018;4.282;2023-05-16T07:28:21;4.15;;;1.15;;
18905;SDS011;9585;51.018;4.282;2023-05-16T07:30:49;3.85;;;1.00;;
18905;SDS011;9585;51.018;4.282;2023-05-16T07:33:16;2.63;;;0.80;;
18905;SDS011;9585;51.018;4.282;2023-05-16T07:35:44;5.28;;;1.17;;
18905;SDS011;9585;51.018;4.282;2023-05-16T07:38:11;3.22;;;0.80;;
18905;SDS011;9585;51.018;4.282;2023-05-16T07:40:46;7.43;;;1.02;;
18905;SDS011;9585;51.018;4.282;2023-05-16T07:43:13;2.47;;;0.90;;
18905;SDS011;9585;51.018;4.282;2023-05-16T07:45:41;2.88;;;1.05;;
18905;SDS011;9585;51.018;4.282;2023-05-16T07:48:11;4.82;;;1.13;;
18905;SDS011;9585;51.018;4.282;2023-05-16T07:50:39;3.80;;;1.08;;
18905;SDS011;9585;51.018;4.282;2023-05-16T07:53:06;4.57;;;0.80;;
18905;SDS011;9585;51.018;4.282;2023-05-16T07:55:36;4.18;;;0.98;;
18905;SDS011;9585;51.018;4.282;2023-05-16T07:58:06;3.55;;;1.10;;
18905;SDS011;9585;51.018;4.282;2023-05-16T08:00:34;2.67;;;1.10;;
18905;SDS011;9585;51.018;4.282;2023-05-16T08:03:02;2.55;;;0.80;;
18905;SDS011;9585;51.018;4.282;2023-05-16T08:05:36;3.38;;;1.23;;
18905;SDS011;9585;51.018;4.282;2023-05-16T08:08:04;3.28;;;1.17;;
18905;SDS011;9585;51.018;4.282;2023-05-16T08:10:32;4.32;;;1.00;;
18905;SDS011;9585;51.018;4.282;2023-05-16T08:12:59;5.55;;;1.02;;
18905;SDS011;9585;51.018;4.282;2023-05-16T08:15:30;3.95;;;0.80;;
18905;SDS011;9585;51.018;4.282;2023-05-16T08:18:00;3.72;;;1.02;;
18905;SDS011;9585;51.018;4.282;2023-05-16T08:20:30;3.95;;;1.25;;
18905;SDS011;9585;51.018;4.282;2023-05-16T08:23:03;5.35;;;0.90;;
18905;SDS011;9585;51.018;4.282;2023-05-16T08:25:32;3.65;;;1.00;;
18905;SDS011;9585;51.018;4.282;2023-05-16T08:28:00;4.43;;;1.00;;
18905;SDS011;9585;51.018;4.282;2023-05-16T08:30:37;3.47;;;0.93;;
18905;SDS011;9585;51.018;4.282;2023-05-16T08:33:07;3.70;;;0.95;;
18905;SDS011;9585;51.018;4.282;2023-05-16T08:35:41;5.55;;;1.40;;
18905;SDS011;9585;51.018;4.282;2023-05-16T08:38:08;5.18;;;1.10;;
18905;SDS011;9585;51.018;4.282;2023-05-16T08:40:36;4.07;;;1.30;;
18905;SDS011;9585;51.018;4.282;2023-05-16T08:43:06;3.00;;;1.25;;
18905;SDS011;9585;51.018;4.282;2023-05-16T08:45:34;5.05;;;1.77;;
18905;SDS011;9585;51.018;4.282;2023-05-16T08:48:06;8.20;;;1.05;;
18905;SDS011;9585;51.018;4.282;2023-05-16T08:50:36;7.43;;;1.50;;
18905;SDS011;9585;51.018;4.282;2023-05-16T08:53:04;7.47;;;1.13;;
18905;SDS011;9585;51.018;4.282;2023-05-16T08:55:34;4.60;;;1.10;;
18905;SDS011;9585;51.018;4.282;2023-05-16T08:58:05;3.50;;;0.82;;
18905;SDS011;9585;51.018;4.282;2023-05-16T09:00:36;2.80;;;0.80;;
18905;SDS011;9585;51.018;4.282;2023-05-16T09:03:06;5.90;;;1.20;;
18905;SDS011;9585;51.018;4.282;2023-05-16T09:05:37;3.97;;;0.98;;
18905;SDS011;9585;51.018;4.282;2023-05-16T09:08:07;2.85;;;0.98;;
18905;SDS011;9585;51.018;4.282;2023-05-16T09:10:44;3.35;;;1.00;;
18905;SDS011;9585;51.018;4.282;2023-05-16T09:13:14;5.53;;;0.95;;
18905;SDS011;9585;51.018;4.282;2023-05-16T09:15:42;3.85;;;0.82;;
18905;SDS011;9585;51.018;4.282;2023-05-16T09:18:12;3.03;;;0.82;;
18905;SDS011;9585;51.018;4.282;2023-05-16T09:20:42;6.80;;;1.20;;
18905;SDS011;9585;51.018;4.282;2023-05-16T09:23:12;4.55;;;1.00;;
18905;SDS011;9585;51.018;4.282;2023-05-16T09:25:40;1.80;;;0.70;;
18905;SDS011;9585;51.018;4.282;2023-05-16T09:28:09;2.45;;;0.70;;
18905;SDS011;9585;51.018;4.282;2023-05-16T09:30:40;3.97;;;0.80;;
18905;SDS011;9585;51.018;4.282;2023-05-16T09:33:15;8.65;;;1.17;;
18905;SDS011;9585;51.018;4.282;2023-05-16T09:35:46;5.38;;;1.00;;
18905;SDS011;9585;51.018;4.282;2023-05-16T09:38:21;3.47;;;1.10;;
18905;SDS011;9585;51.018;4.282;2023-05-16T09:40:59;1.92;;;0.80;;
18905;SDS011;9585;51.018;4.282;2023-05-16T09:43:28;5.55;;;0.90;;
18905;SDS011;9585;51.018;4.282;2023-05-16T09:46:00;3.97;;;0.80;;
18905;SDS011;9585;51.018;4.282;2023-05-16T09:48:32;3.40;;;0.70;;
18905;SDS011;9585;51.018;4.282;2023-05-16T09:51:00;4.88;;;1.25;;
18905;SDS011;9585;51.018;4.282;2023-05-16T09:53:34;6.78;;;1.10;;
18905;SDS011;9585;51.018;4.282;2023-05-16T09:56:04;2.63;;;0.73;;
18905;SDS011;9585;51.018;4.282;2023-05-16T09:58:33;2.80;;;0.90;;
18905;SDS011;9585;51.018;4.282;2023-05-16T10:01:02;2.67;;;0.70;;
18905;SDS011;9585;51.018;4.282;2023-05-16T10:03:48;2.55;;;0.90;;
18905;SDS011;9585;51.018;4.282;2023-05-16T10:06:16;2.08;;;0.95;;
18905;SDS011;9585;51.018;4.282;2023-05-16T10:08:44;4.25;;;0.93;;
18905;SDS011;9585;51.018;4.282;2023-05-16T10:11:20;3.83;;;1.02;;
18905;SDS011;9585;51.018;4.282;2023-05-16T10:13:51;3.10;;;0.80;;
18905;SDS011;9585;51.018;4.282;2023-05-16T10:16:21;4.20;;;0.90;;
18905;SDS011;9585;51.018;4.282;2023-05-16T10:18:54;2.15;;;0.55;;
18905;SDS011;9585;51.018;4.282;2023-05-16T10:21:28;4.55;;;0.70;;
18905;SDS011;9585;51.018;4.282;2023-05-16T10:24:02;3.33;;;0.70;;
18905;SDS011;9585;51.018;4.282;2023-05-16T10:26:32;4.10;;;1.05;;
18905;SDS011;9585;51.018;4.282;2023-05-16T10:29:02;3.22;;;0.80;;
18905;SDS011;9585;51.018;4.282;2023-05-16T10:31:32;3.03;;;0.88;;
18905;SDS011;9585;51.018;4.282;2023-05-16T10:34:17;2.92;;;0.90;;
18905;SDS011;9585;51.018;4.282;2023-05-16T10:36:48;7.57;;;1.05;;
18905;SDS011;9585;51.018;4.282;2023-05-16T10:39:19;4.88;;;1.10;;
18905;SDS011;9585;51.018;4.282;2023-05-16T10:41:53;3.25;;;0.90;;
18905;SDS011;9585;51.018;4.282;2023-05-16T10:44:21;4.38;;;0.90;;
18905;SDS011;9585;51.018;4.282;2023-05-16T10:46:54;3.83;;;1.00;;
18905;SDS011;9585;51.018;4.282;2023-05-16T10:49:32;3.65;;;0.95;;
18905;SDS011;9585;51.018;4.282;2023-05-16T10:52:04;3.70;;;1.00;;
18905;SDS011;9585;51.018;4.282;2023-05-16T10:54:34;4.38;;;0.88;;
18905;SDS011;9585;51.018;4.282;2023-05-16T10:57:05;4.20;;;0.90;;
18905;SDS011;9585;51.018;4.282;2023-05-16T10:59:42;3.78;;;0.88;;
18905;SDS011;9585;51.018;4.282;2023-05-16T11:02:21;3.90;;;1.30;;
18905;SDS011;9585;51.018;4.282;2023-05-16T11:04:52;3.20;;;1.00;;
18905;SDS011;9585;51.018;4.282;2023-05-16T11:07:29;2.67;;;0.90;;
18905;SDS011;9585;51.018;4.282;2023-05-16T11:10:05;2.58;;;0.70;;
18905;SDS011;9585;51.018;4.282;2023-05-16T11:12:43;5.40;;;1.02;;
18905;SDS011;9585;51.018;4.282;2023-05-16T11:15:20;4.63;;;1.10;;
18905;SDS011;9585;51.018;4.282;2023-05-16T11:18:03;3.42;;;0.80;;
18905;SDS011;9585;51.018;4.282;2023-05-16T11:20:36;5.43;;;1.10;;
18905;SDS011;9585;51.018;4.282;2023-05-16T11:23:17;2.17;;;0.80;;
18905;SDS011;9585;51.018;4.282;2023-05-16T11:25:51;5.32;;;1.00;;
18905;SDS011;9585;51.018;4.282;2023-05-16T11:28:21;5.85;;;1.90;;
18905;SDS011;9585;51.018;4.282;2023-05-16T11:30:51;7.22;;;1.40;;
18905;SDS011;9585;51.018;4.282;2023-05-16T11:33:22;3.20;;;0.93;;
18905;SDS011;9585;51.018;4.282;2023-05-16T11:36:01;6.45;;;1.90;;
18905;SDS011;9585;51.018;4.282;2023-05-16T11:38:38;8.55;;;1.00;;
18905;SDS011;9585;51.018;4.282;2023-05-16T11:41:09;5.15;;;1.10;;
18905;SDS011;9585;51.018;4.282;2023-05-16T11:43:40;2.92;;;1.20;;
18905;SDS011;9585;51.018;4.282;2023-05-16T11:46:12;2.55;;;0.70;;
18905;SDS011;9585;51.018;4.282;2023-05-16T11:48:41;2.83;;;0.80;;
18905;SDS011;9585;51.018;4.282;2023-05-16T11:51:12;3.95;;;1.02;;
18905;SDS011;9585;51.018;4.282;2023-05-16T11:53:43;3.47;;;0.85;;
18905;SDS011;9585;51.018;4.282;2023-05-16T11:56:25;2.13;;;0.70;;
18905;SDS011;9585;51.018;4.282;2023-05-16T11:58:53;5.25;;;1.80;;
18905;SDS011;9585;51.018;4.282;2023-05-16T12:01:34;2.72;;;1.33;;
18905;SDS011;9585;51.018;4.282;2023-05-16T12:04:06;3.58;;;0.80;;
18905;SDS011;9585;51.018;4.282;2023-05-16T12:06:56;3.92;;;1.00;;
18905;SDS011;9585;51.018;4.282;2023-05-16T12:09:31;1.55;;;0.80;;
18905;SDS011;9585;51.018;4.282;2023-05-16T12:12:02;5.53;;;1.48;;
18905;SDS011;9585;51.018;4.282;2023-05-16T12:14:35;2.90;;;0.90;;
18905;SDS011;9585;51.018;4.282;2023-05-16T12:17:06;4.93;;;0.80;;
18905;SDS011;9585;51.018;4.282;2023-05-16T12:19:35;1.73;;;0.60;;
18905;SDS011;9585;51.018;4.282;2023-05-16T12:28:07;5.10;;;0.90;;
18905;SDS011;9585;51.018;4.282;2023-05-16T12:30:50;1.70;;;0.65;;
18905;SDS011;9585;51.018;4.282;2023-05-16T12:33:18;5.85;;;0.90;;
18905;SDS011;9585;51.018;4.282;2023-05-16T12:35:48;7.45;;;1.33;;
18905;SDS011;9585;51.018;4.282;2023-05-16T12:38:21;4.60;;;1.23;;
18905;SDS011;9585;51.018;4.282;2023-05-16T12:40:50;6.05;;;1.15;;
18905;SDS011;9585;51.018;4.282;2023-05-16T12:43:23;4.13;;;0.95;;
18905;SDS011;9585;51.018;4.282;2023-05-16T12:45:53;2.53;;;0.82;;
18905;SDS011;9585;51.018;4.282;2023-05-16T12:48:21;6.13;;;0.93;;
18905;SDS011;9585;51.018;4.282;2023-05-16T12:51:12;4.00;;;1.00;;
18905;SDS011;9585;51.018;4.282;2023-05-16T12:53:42;3.72;;;0.70;;
18905;SDS011;9585;51.018;4.282;2023-05-16T12:56:11;2.83;;;0.70;;
18905;SDS011;9585;51.018;4.282;2023-05-16T12:58:41;5.72;;;1.30;;
18905;SDS011;9585;51.018;4.282;2023-05-16T13:01:09;3.53;;;0.73;;
18905;SDS011;9585;51.018;4.282;2023-05-16T13:03:36;6.70;;;1.25;;
18905;SDS011;9585;51.018;4.282;2023-05-16T13:06:04;3.08;;;0.80;;
18905;SDS011;9585;51.018;4.282;2023-05-16T13:08:33;4.20;;;0.98;;
18905;SDS011;9585;51.018;4.282;2023-05-16T13:11:02;4.45;;;1.05;;
18905;SDS011;9585;51.018;4.282;2023-05-16T13:13:35;5.75;;;0.90;;
18905;SDS011;9585;51.018;4.282;2023-05-16T13:16:03;4.28;;;1.00;;
18905;SDS011;9585;51.018;4.282;2023-05-16T13:18:35;4.03;;;0.75;;
18905;SDS011;9585;51.018;4.282;2023-05-16T13:21:06;3.83;;;1.00;;
18905;SDS011;9585;51.018;4.282;2023-05-16T13:23:34;4.05;;;0.70;;
18905;SDS011;9585;51.018;4.282;2023-05-16T13:26:05;2.03;;;0.70;;
18905;SDS011;9585;51.018;4.282;2023-05-16T13:28:33;5.72;;;1.00;;
18905;SDS011;9585;51.018;4.282;2023-05-16T13:31:01;9.27;;;1.00;;
18905;SDS011;9585;51.018;4.282;2023-05-16T13:33:32;4.25;;;1.02;;
18905;SDS011;9585;51.018;4.282;2023-05-16T13:36:02;2.97;;;0.90;;
18905;SDS011;9585;51.018;4.282;2023-05-16T13:38:33;2.38;;;0.80;;
18905;SDS011;9585;51.018;4.282;2023-05-16T13:41:00;4.60;;;1.00;;
18905;SDS011;9585;51.018;4.282;2023-05-16T13:43:32;3.33;;;1.00;;
18905;SDS011;9585;51.018;4.282;2023-05-16T13:46:12;2.28;;;0.80;;
18905;SDS011;9585;51.018;4.282;2023-05-16T13:48:40;5.85;;;0.70;;
18905;SDS011;9585;51.018;4.282;2023-05-16T13:51:08;1.75;;;0.68;;
18905;SDS011;9585;51.018;4.282;2023-05-16T13:53:39;2.53;;;0.70;;
18905;SDS011;9585;51.018;4.282;2023-05-16T13:56:07;8.20;;;1.08;;
18905;SDS011;9585;51.018;4.282;2023-05-16T13:58:38;3.92;;;0.80;;
18905;SDS011;9585;51.018;4.282;2023-05-16T14:01:06;3.30;;;0.80;;
18905;SDS011;9585;51.018;4.282;2023-05-16T14:03:33;3.13;;;0.82;;
18905;SDS011;9585;51.018;4.282;2023-05-16T14:06:01;4.60;;;1.00;;
18905;SDS011;9585;51.018;4.282;2023-05-16T14:08:28;4.63;;;1.10;;
18905;SDS011;9585;51.018;4.282;2023-05-16T14:10:56;2.65;;;0.80;;
18905;SDS011;9585;51.018;4.282;2023-05-16T14:13:24;3.38;;;0.70;;
18905;SDS011;9585;51.018;4.282;2023-05-16T14:15:53;2.90;;;0.77;;
18905;SDS011;9585;51.018;4.282;2023-05-16T14:18:23;2.35;;;0.70;;
18905;SDS011;9585;51.018;4.282;2023-05-16T14:20:50;4.40;;;0.82;;
18905;SDS011;9585;51.018;4.282;2023-05-16T14:23:20;3.33;;;0.70;;
18905;SDS011;9585;51.018;4.282;2023-05-16T14:25:48;13.15;;;1.73;;
18905;SDS011;9585;51.018;4.282;2023-05-16T14:28:20;2.05;;;0.95;;
18905;SDS011;9585;51.018;4.282;2023-05-16T14:30:48;3.03;;;0.70;;
18905;SDS011;9585;51.018;4.282;2023-05-16T14:33:24;3.58;;;0.70;;
18905;SDS011;9585;51.018;4.282;2023-05-16T14:35:55;2.22;;;0.73;;
18905;SDS011;9585;51.018;4.282;2023-05-16T14:38:23;12.32;;;1.75;;
18905;SDS011;9585;51.018;4.282;2023-05-16T14:41:08;4.13;;;0.93;;
18905;SDS011;9585;51.018;4.282;2023-05-16T14:43:36;2.30;;;0.70;;
18905;SDS011;9585;51.018;4.282;2023-05-16T14:46:07;2.70;;;0.73;;
18905;SDS011;9585;51.018;4.282;2023-05-16T14:48:43;2.55;;;0.60;;
18905;SDS011;9585;51.018;4.282;2023-05-16T14:51:12;1.50;;;0.65;;
18905;SDS011;9585;51.018;4.282;2023-05-16T14:53:39;2.47;;;0.60;;
18905;SDS011;9585;51.018;4.282;2023-05-16T14:56:08;3.38;;;1.00;;
18905;SDS011;9585;51.018;4.282;2023-05-16T14:58:36;3.65;;;0.70;;
18905;SDS011;9585;51.018;4.282;2023-05-16T15:01:04;8.13;;;1.02;;
18905;SDS011;9585;51.018;4.282;2023-05-16T15:03:44;3.80;;;0.82;;
18905;SDS011;9585;51.018;4.282;2023-05-16T15:06:12;2.65;;;0.60;;
18905;SDS011;9585;51.018;4.282;2023-05-16T15:08:41;4.15;;;1.00;;
18905;SDS011;9585;51.018;4.282;2023-05-16T15:11:09;4.13;;;0.93;;
18905;SDS011;9585;51.018;4.282;2023-05-16T15:13:37;9.13;;;1.00;;
18905;SDS011;9585;51.018;4.282;2023-05-16T15:16:06;3.13;;;0.70;;
18905;SDS011;9585;51.018;4.282;2023-05-16T15:18:35;13.15;;;1.05;;
18905;SDS011;9585;51.018;4.282;2023-05-16T15:21:04;2.08;;;0.82;;
18905;SDS011;9585;51.018;4.282;2023-05-16T15:23:34;4.28;;;1.05;;